Terminal Aerodrome Forecast
Issued by NWS Quad Cities IA IL

Home | Current Version | Previous Version | Text Only | Print | Product List | Glossary On
Versions: 1 2 3 4 5 6 7 8 9 10 11 12 13 14 15 16 17 18 19 20
000
FTUS43 KDVN 200200 AAA
TAFMLI
TAF AMD
KMLI 200207Z 2002/2024 10006KT P6SM OVC060
     FM200800 15005KT P6SM OVC025
     FM201400 16005KT 5SM BR OVC020
     FM202100 16005KT P6SM OVC025=

USA.gov is the U.S. government's official web portal to all federal, state and local government web resources and services.